createdAt,value
2023-02-24T14:51:40.696Z,93.13
2023-02-24T14:54:14.339Z,92.77
2023-02-24T14:56:45.687Z,93.95
2023-02-24T14:59:27.877Z,93.42
2023-02-24T15:01:56.221Z,94.96
2023-02-24T15:04:41.900Z,93.95
2023-02-24T15:07:39.911Z,94.34
2023-02-24T15:10:36.219Z,94.14
2023-02-24T15:13:25.848Z,94.33
2023-02-24T15:15:58.326Z,95.31
2023-02-24T15:18:29.804Z,94.50
2023-02-24T15:21:06.290Z,94.50
2023-02-24T15:23:39.456Z,95.12
2023-02-24T15:26:40.059Z,95.68
2023-02-24T15:29:27.108Z,96.83
2023-02-24T15:32:03.735Z,97.60
2023-02-24T15:34:42.590Z,97.89
2023-02-24T15:37:46.008Z,98.89
2023-02-24T15:40:22.914Z,97.77
2023-02-24T15:43:17.198Z,97.83
2023-02-24T15:45:54.912Z,99.16
2023-02-24T15:48:31.459Z,98.36
2023-02-24T15:51:22.562Z,99.66
2023-02-24T15:54:17.550Z,99.80
2023-02-24T15:57:12.159Z,100.00
2023-02-24T15:59:46.626Z,100.00
2023-02-24T16:02:20.620Z,100.00
2023-02-24T16:04:55.143Z,100.00
2023-02-24T16:07:34.366Z,100.00
2023-02-24T16:10:15.644Z,100.00
2023-02-24T16:12:58.556Z,100.00
2023-02-24T16:15:37.982Z,100.00
2023-02-24T16:18:22.060Z,100.00
2023-02-24T16:21:07.658Z,100.00
2023-02-24T16:23:44.256Z,100.00
2023-02-24T16:26:26.803Z,100.00
2023-02-24T16:29:01.589Z,100.00
2023-02-24T16:31:42.087Z,100.00
2023-02-24T16:34:28.284Z,100.00
2023-02-24T16:37:05.258Z,100.00
2023-02-24T16:39:40.810Z,100.00
2023-02-24T16:42:32.219Z,100.00
2023-02-24T16:45:03.071Z,100.00
2023-02-24T16:47:49.022Z,100.00
2023-02-24T16:50:33.649Z,100.00
2023-02-24T16:53:13.366Z,100.00
2023-02-24T16:55:44.879Z,100.00
2023-02-24T16:58:16.340Z,100.00
2023-02-24T17:01:03.533Z,100.00
2023-02-24T17:03:52.359Z,100.00
2023-02-24T17:06:34.969Z,100.00
2023-02-24T17:09:20.433Z,100.00
2023-02-24T17:11:55.343Z,100.00
2023-02-24T17:14:51.253Z,100.00
2023-02-24T17:17:33.697Z,100.00
2023-02-24T17:20:13.776Z,100.00
2023-02-24T17:22:46.713Z,100.00
2023-02-24T17:25:30.976Z,100.00
2023-02-24T17:27:59.823Z,100.00
2023-02-24T17:30:42.461Z,100.00
2023-02-24T17:33:15.463Z,100.00
2023-02-24T17:35:52.932Z,100.00
2023-02-24T17:38:22.923Z,100.00
2023-02-24T17:41:07.641Z,100.00
2023-02-24T17:43:38.205Z,100.00
2023-02-24T17:46:09.179Z,100.00
2023-02-24T17:48:42.154Z,100.00
2023-02-24T17:51:17.336Z,100.00
2023-02-24T17:53:45.542Z,100.00
2023-02-24T17:56:20.404Z,100.00
2023-02-24T17:58:52.044Z,100.00
2023-02-24T18:01:58.093Z,100.00
2023-02-24T18:04:32.381Z,100.00
2023-02-24T18:07:05.700Z,100.00
2023-02-24T18:09:41.499Z,100.00
2023-02-24T18:12:22.013Z,100.00
2023-02-24T18:15:07.448Z,100.00
2023-02-24T18:17:46.894Z,100.00
2023-02-24T18:20:29.491Z,100.00
2023-02-24T18:23:35.247Z,100.00
2023-02-24T18:29:33.822Z,100.00
2023-02-24T18:32:10.571Z,100.00
2023-02-24T18:34:57.454Z,100.00
2023-02-24T18:37:36.105Z,100.00
2023-02-24T18:40:04.321Z,100.00
2023-02-24T18:42:47.647Z,100.00
2023-02-24T18:45:26.231Z,100.00
2023-02-24T18:47:54.497Z,100.00
2023-02-24T18:50:30.438Z,100.00
2023-02-24T18:53:30.064Z,100.00
2023-02-24T18:56:15.670Z,100.00
2023-02-24T18:58:55.784Z,100.00
2023-02-24T19:01:52.771Z,100.00
2023-02-24T19:04:24.884Z,100.00
2023-02-24T19:06:57.681Z,100.00
2023-02-24T19:09:36.507Z,100.00
2023-02-24T19:12:41.541Z,100.00
2023-02-24T19:15:15.414Z,100.00
2023-02-24T19:17:57.501Z,100.00
2023-02-24T19:20:45.334Z,100.00
2023-02-24T19:23:16.448Z,100.00
2023-02-24T19:25:49.141Z,100.00
2023-02-24T19:28:31.883Z,100.00
2023-02-24T19:31:06.955Z,100.00
2023-02-24T19:33:41.203Z,100.00
2023-02-24T19:36:09.774Z,100.00
2023-02-24T19:38:48.305Z,100.00
2023-02-24T19:41:21.416Z,100.00
2023-02-24T19:43:54.369Z,100.00
2023-02-24T19:46:36.297Z,100.00
2023-02-24T19:49:09.497Z,100.00
2023-02-24T19:51:46.627Z,100.00
2023-02-24T19:54:16.069Z,100.00
2023-02-24T19:57:10.377Z,100.00
2023-02-24T19:59:40.692Z,100.00
2023-02-24T20:02:11.485Z,100.00
2023-02-24T20:04:39.475Z,100.00
2023-02-24T20:07:31.492Z,100.00
2023-02-24T20:10:04.158Z,100.00
2023-02-24T20:12:43.842Z,100.00
2023-02-24T20:15:16.819Z,100.00
2023-02-24T20:18:16.761Z,100.00
2023-02-24T20:20:51.670Z,100.00
2023-02-24T20:23:34.594Z,100.00
2023-02-24T20:26:08.326Z,100.00
2023-02-24T20:28:41.410Z,100.00
2023-02-24T20:31:17.038Z,100.00
2023-02-24T20:33:45.286Z,100.00
2023-02-24T20:36:28.318Z,100.00
2023-02-24T20:39:07.875Z,100.00
2023-02-24T20:41:38.795Z,100.00
2023-02-24T20:44:12.242Z,100.00
2023-02-24T20:46:53.375Z,100.00
2023-02-24T20:49:35.506Z,100.00
2023-02-24T20:52:23.873Z,100.00
2023-02-24T20:54:58.058Z,100.00
2023-02-24T20:57:26.369Z,100.00
2023-02-24T21:00:04.161Z,100.00
2023-02-24T21:02:45.093Z,100.00
2023-02-24T21:05:30.735Z,100.00
2023-02-24T21:08:12.879Z,100.00
2023-02-24T21:10:58.152Z,100.00
2023-02-24T21:13:34.175Z,100.00
2023-02-24T21:16:05.666Z,100.00
2023-02-24T21:18:40.638Z,100.00
2023-02-24T21:21:09.288Z,100.00
2023-02-24T21:23:42.465Z,100.00
2023-02-24T21:26:18.328Z,100.00
2023-02-24T21:28:51.087Z,100.00
2023-02-24T21:31:23.990Z,100.00
2023-02-24T21:33:56.455Z,100.00
2023-02-24T21:36:30.020Z,100.00
2023-02-24T21:39:10.492Z,100.00
2023-02-24T21:41:43.648Z,100.00
2023-02-24T21:44:31.070Z,100.00
2023-02-24T21:47:05.661Z,100.00
2023-02-24T21:49:38.014Z,100.00
2023-02-24T21:52:13.422Z,100.00
2023-02-24T21:54:52.697Z,100.00
2023-02-24T21:57:32.383Z,100.00
2023-02-24T22:00:12.334Z,100.00
2023-02-24T22:03:02.479Z,100.00
2023-02-24T22:05:51.719Z,100.00
2023-02-24T22:08:49.986Z,100.00
2023-02-24T22:11:49.754Z,100.00
2023-02-24T22:14:43.287Z,100.00
2023-02-24T22:17:28.225Z,100.00
2023-02-24T22:20:02.545Z,100.00
2023-02-24T22:22:42.975Z,100.00
2023-02-24T22:25:22.760Z,100.00
2023-02-24T22:28:10.042Z,100.00
2023-02-24T22:30:53.421Z,100.00
2023-02-24T22:33:33.328Z,100.00
2023-02-24T22:36:10.136Z,100.00
2023-02-24T22:38:43.014Z,100.00
2023-02-24T22:41:35.588Z,100.00
2023-02-24T22:44:20.390Z,100.00
2023-02-24T22:47:01.962Z,100.00
2023-02-24T22:49:40.812Z,100.00
2023-02-24T22:52:41.273Z,100.00
2023-02-24T22:55:19.998Z,100.00
2023-02-24T22:57:52.747Z,100.00
2023-02-24T23:00:28.800Z,100.00
2023-02-24T23:03:05.259Z,100.00
2023-02-24T23:05:38.245Z,100.00
2023-02-24T23:08:10.924Z,100.00
2023-02-24T23:10:54.166Z,100.00
2023-02-24T23:13:36.452Z,100.00
2023-02-24T23:19:17.960Z,100.00
2023-02-24T23:22:06.021Z,100.00
2023-02-24T23:24:40.080Z,100.00
2023-02-24T23:27:15.034Z,100.00
2023-02-24T23:29:48.059Z,100.00
2023-02-24T23:32:29.202Z,100.00
2023-02-24T23:35:05.264Z,100.00
2023-02-24T23:37:46.528Z,100.00
2023-02-24T23:40:27.116Z,100.00
2023-02-24T23:43:20.879Z,100.00
2023-02-24T23:46:14.184Z,100.00
2023-02-24T23:48:45.166Z,100.00
2023-02-24T23:51:21.696Z,100.00
2023-02-24T23:54:02.772Z,100.00
2023-02-24T23:56:35.389Z,100.00
2023-02-24T23:59:18.793Z,100.00
